createdAt,value
2022-08-26T00:00:56.999Z,94319.22
2022-08-26T00:02:59.462Z,94309.84
2022-08-26T00:05:01.326Z,94311.72
2022-08-26T00:07:03.293Z,94315.19
2022-08-26T00:09:08.049Z,94307.06
2022-08-26T00:11:10.533Z,94307.31
2022-08-26T00:13:13.029Z,94311.84
2022-08-26T00:15:19.097Z,94306.50
2022-08-26T00:17:21.809Z,94312.41
2022-08-26T00:19:23.708Z,94311.03
2022-08-26T00:21:25.467Z,94304.88
2022-08-26T00:23:28.928Z,94307.31
2022-08-26T00:25:30.661Z,94308.81
2022-08-26T00:27:35.575Z,94309.88
2022-08-26T00:29:37.654Z,94305.03
2022-08-26T00:31:40.050Z,94303.88
2022-08-26T00:33:43.259Z,94300.34
2022-08-26T00:35:47.585Z,94308.94
2022-08-26T00:37:49.366Z,94304.56
2022-08-26T00:39:51.402Z,94301.00
2022-08-26T00:41:54.771Z,94304.69
2022-08-26T00:43:56.570Z,94300.66
2022-08-26T00:46:13.784Z,94312.84
2022-08-26T00:48:18.610Z,94305.06
2022-08-26T00:50:25.892Z,94302.41
2022-08-26T00:52:30.196Z,94312.03
2022-08-26T00:54:35.778Z,94308.81
2022-08-26T00:56:43.912Z,94312.75
2022-08-26T00:58:48.926Z,94313.34
2022-08-26T01:00:51.556Z,94309.59
2022-08-26T01:02:56.164Z,94305.78
2022-08-26T01:05:00.835Z,94304.50
2022-08-26T01:07:05.908Z,94309.38
2022-08-26T01:09:07.985Z,94298.13
2022-08-26T01:11:10.623Z,94306.47
2022-08-26T01:13:12.845Z,94303.81
2022-08-26T01:15:22.729Z,94300.31
2022-08-26T01:17:24.473Z,94296.28
2022-08-26T01:19:31.395Z,94302.19
2022-08-26T01:21:43.406Z,94298.72
2022-08-26T01:23:48.589Z,94293.03
2022-08-26T01:25:55.384Z,94294.31
2022-08-26T01:28:00.494Z,94294.56
2022-08-26T01:30:03.085Z,94291.56
2022-08-26T01:32:06.252Z,94297.94
2022-08-26T01:34:18.590Z,94295.03
2022-08-26T01:36:21.533Z,94293.97
2022-08-26T01:38:23.717Z,94290.16
2022-08-26T01:40:33.115Z,94291.56
2022-08-26T01:42:35.130Z,94292.16
2022-08-26T01:44:44.488Z,94290.28
2022-08-26T01:46:47.610Z,94296.66
2022-08-26T01:48:54.368Z,94301.66
2022-08-26T01:50:57.500Z,94299.00
2022-08-26T01:53:03.960Z,94295.03
2022-08-26T01:55:06.691Z,94292.72
2022-08-26T01:57:09.025Z,94291.44
2022-08-26T01:59:14.640Z,94293.03
2022-08-26T02:01:18.121Z,94295.69
2022-08-26T02:03:22.349Z,94297.72
2022-08-26T02:05:24.331Z,94297.50
2022-08-26T02:07:27.039Z,94294.28
2022-08-26T02:09:28.976Z,94295.00
2022-08-26T02:11:33.790Z,94287.00
2022-08-26T02:13:42.795Z,94289.75
2022-08-26T02:15:44.678Z,94290.91
2022-08-26T02:17:48.010Z,94287.78
2022-08-26T02:19:54.887Z,94295.31
2022-08-26T02:21:59.877Z,94300.66
2022-08-26T02:24:13.807Z,94291.81
2022-08-26T02:26:19.805Z,94286.28
2022-08-26T02:28:21.784Z,94290.00
2022-08-26T02:30:32.310Z,94286.28
2022-08-26T02:32:34.053Z,94287.31
2022-08-26T02:34:37.402Z,94289.41
2022-08-26T02:36:40.285Z,94284.09
2022-08-26T02:38:43.089Z,94287.44
2022-08-26T02:40:44.989Z,94291.53
2022-08-26T02:42:46.874Z,94286.66
2022-08-26T02:44:49.502Z,94291.31
2022-08-26T02:46:52.360Z,94295.81
2022-08-26T02:48:55.967Z,94288.88
2022-08-26T02:51:01.918Z,94293.72
2022-08-26T02:53:04.667Z,94289.53
2022-08-26T02:55:08.457Z,94294.06
2022-08-26T02:57:11.305Z,94295.44
2022-08-26T02:59:13.548Z,94293.00
2022-08-26T03:01:30.613Z,94298.84
2022-08-26T03:03:33.193Z,94300.47
2022-08-26T03:05:35.312Z,94295.97
2022-08-26T03:07:37.847Z,94301.22
2022-08-26T03:09:39.716Z,94296.19
2022-08-26T03:11:42.274Z,94298.78
2022-08-26T03:13:45.466Z,94302.41
2022-08-26T03:15:47.699Z,94298.13
2022-08-26T03:17:50.390Z,94306.38
2022-08-26T03:19:57.095Z,94299.09
2022-08-26T03:21:59.402Z,94304.09
2022-08-26T03:24:01.377Z,94301.53
2022-08-26T03:26:03.498Z,94300.59
2022-08-26T03:28:05.140Z,94292.97
2022-08-26T03:30:29.708Z,94299.69
2022-08-26T03:32:31.519Z,94303.03
2022-08-26T03:34:33.587Z,94291.66
2022-08-26T03:36:35.352Z,94293.63
2022-08-26T03:38:37.245Z,94298.00
2022-08-26T03:40:39.891Z,94293.03
2022-08-26T03:42:44.504Z,94297.56
2022-08-26T03:44:47.248Z,94290.59
2022-08-26T03:46:49.818Z,94293.84
2022-08-26T03:48:52.167Z,94293.63
2022-08-26T03:50:53.952Z,94292.81
2022-08-26T03:52:56.761Z,94295.34
2022-08-26T03:54:58.611Z,94295.03
2022-08-26T03:57:00.458Z,94295.50
2022-08-26T03:59:02.700Z,94297.94
2022-08-26T04:01:04.755Z,94300.47
2022-08-26T04:03:06.736Z,94299.06
2022-08-26T04:05:17.617Z,94295.25
2022-08-26T04:07:19.791Z,94291.09
2022-08-26T04:09:21.625Z,94289.56
2022-08-26T04:11:30.695Z,94298.72
2022-08-26T04:13:36.214Z,94294.56
2022-08-26T04:15:39.395Z,94296.16
2022-08-26T04:17:41.413Z,94296.72
2022-08-26T04:19:43.332Z,94289.09
2022-08-26T04:21:46.598Z,94292.31
2022-08-26T04:23:49.566Z,94297.97
2022-08-26T04:25:51.603Z,94290.31
2022-08-26T04:27:53.563Z,94291.94
2022-08-26T04:29:55.492Z,94291.94
2022-08-26T04:31:57.496Z,94293.13
2022-08-26T04:33:59.403Z,94291.03
2022-08-26T04:36:02.601Z,94293.22
2022-08-26T04:38:05.824Z,94290.56
2022-08-26T04:40:10.253Z,94286.84
2022-08-26T04:42:13.458Z,94292.53
2022-08-26T04:44:16.667Z,94294.97
2022-08-26T04:46:24.980Z,94292.75
2022-08-26T04:48:29.052Z,94298.88
2022-08-26T04:50:31.073Z,94291.47
2022-08-26T04:52:34.042Z,94289.38
2022-08-26T04:54:35.730Z,94292.59
2022-08-26T04:56:41.592Z,94292.47
2022-08-26T04:58:45.076Z,94291.53
2022-08-26T05:00:51.261Z,94294.31
2022-08-26T05:02:53.248Z,94295.41
2022-08-26T05:04:55.038Z,94290.09
2022-08-26T05:07:02.370Z,94299.47
2022-08-26T05:09:05.213Z,94290.75
2022-08-26T05:11:09.445Z,94294.16
2022-08-26T05:13:14.301Z,94294.94
2022-08-26T05:15:17.598Z,94299.47
2022-08-26T05:17:19.552Z,94295.75
2022-08-26T05:19:21.313Z,94301.44
2022-08-26T05:21:25.546Z,94302.09
2022-08-26T05:23:32.101Z,94305.09
2022-08-26T05:25:38.934Z,94296.13
2022-08-26T05:27:41.530Z,94297.81
2022-08-26T05:29:43.358Z,94307.53
2022-08-26T05:31:46.117Z,94298.25
2022-08-26T05:33:47.982Z,94317.47
2022-08-26T05:35:49.927Z,94312.03
2022-08-26T05:37:51.711Z,94312.84
2022-08-26T05:39:54.118Z,94304.34
2022-08-26T05:41:55.991Z,94309.78
2022-08-26T05:44:00.076Z,94309.22
2022-08-26T05:46:07.150Z,94314.28
2022-08-26T05:48:09.554Z,94311.72
2022-08-26T05:50:12.031Z,94311.56
2022-08-26T05:52:13.807Z,94310.59
2022-08-26T05:54:21.845Z,94306.41
2022-08-26T05:56:26.309Z,94317.38
2022-08-26T05:58:28.413Z,94313.44
2022-08-26T06:00:30.165Z,94311.06
2022-08-26T06:02:32.108Z,94311.41
2022-08-26T06:04:34.628Z,94315.44
2022-08-26T06:06:42.715Z,94318.44
2022-08-26T06:08:46.084Z,94316.34
2022-08-26T06:10:49.558Z,94317.69
2022-08-26T06:12:52.633Z,94321.19
2022-08-26T06:14:55.285Z,94319.31
2022-08-26T06:16:57.474Z,94317.47
2022-08-26T06:19:03.160Z,94319.13
2022-08-26T06:21:25.931Z,94319.47
2022-08-26T06:23:49.575Z,94328.00
2022-08-26T06:25:52.698Z,94326.81
2022-08-26T06:27:54.727Z,94323.16
2022-08-26T06:29:56.574Z,94327.50
2022-08-26T06:31:58.595Z,94321.00
2022-08-26T06:34:00.877Z,94326.22
2022-08-26T06:36:04.067Z,94327.09
2022-08-26T06:38:06.777Z,94333.72
2022-08-26T06:40:12.177Z,94332.19
2022-08-26T06:42:14.212Z,94338.34
2022-08-26T06:44:16.137Z,94334.94
2022-08-26T06:46:19.674Z,94329.31
2022-08-26T06:48:21.895Z,94332.31
2022-08-26T06:50:23.957Z,94336.91
2022-08-26T06:52:26.691Z,94328.88
2022-08-26T06:54:31.839Z,94337.50
2022-08-26T06:56:39.017Z,94333.03
2022-08-26T06:58:41.437Z,94337.13
2022-08-26T07:00:47.329Z,94348.78
2022-08-26T07:02:49.703Z,94334.38
2022-08-26T07:04:51.670Z,94331.50
2022-08-26T07:06:56.722Z,94328.69
2022-08-26T07:09:05.279Z,94334.41
2022-08-26T07:11:08.786Z,94329.97
2022-08-26T07:13:11.308Z,94335.88
2022-08-26T07:15:14.249Z,94335.56
2022-08-26T07:17:17.003Z,94339.88
2022-08-26T07:19:30.120Z,94341.22
2022-08-26T07:21:33.401Z,94338.84
2022-08-26T07:23:35.723Z,94336.88
2022-08-26T07:25:41.986Z,94338.94
2022-08-26T07:27:44.270Z,94339.47
2022-08-26T07:29:46.116Z,94342.63
2022-08-26T07:31:48.116Z,94346.72
2022-08-26T07:33:50.897Z,94344.41
2022-08-26T07:35:53.013Z,94339.97
2022-08-26T07:37:57.095Z,94341.91
2022-08-26T07:39:59.238Z,94336.88
2022-08-26T07:42:07.538Z,94340.22
2022-08-26T07:44:10.501Z,94336.53
2022-08-26T07:46:20.873Z,94339.78
2022-08-26T07:48:29.432Z,94333.72
2022-08-26T07:50:49.243Z,94343.41
2022-08-26T07:52:52.419Z,94336.69
2022-08-26T07:55:00.388Z,94342.88
2022-08-26T07:57:02.316Z,94348.78
2022-08-26T07:59:13.754Z,94340.75
2022-08-26T08:01:17.065Z,94348.25
2022-08-26T08:03:20.648Z,94344.22
2022-08-26T08:05:23.445Z,94340.44
2022-08-26T08:07:44.940Z,94346.91
2022-08-26T08:09:49.724Z,94341.31
2022-08-26T08:11:51.940Z,94342.72
2022-08-26T08:13:56.253Z,94346.00
2022-08-26T08:15:58.528Z,94348.22
2022-08-26T08:18:01.286Z,94344.19
2022-08-26T08:20:05.133Z,94347.97
2022-08-26T08:22:17.972Z,94346.09
2022-08-26T08:24:22.178Z,94346.94
2022-08-26T08:26:25.531Z,94340.53
2022-08-26T08:28:28.194Z,94337.59
2022-08-26T08:30:30.472Z,94344.81
2022-08-26T08:32:32.313Z,94339.19
2022-08-26T08:34:34.369Z,94345.91
2022-08-26T08:36:36.682Z,94342.47
2022-08-26T08:38:38.798Z,94339.00
2022-08-26T08:40:41.683Z,94340.13
2022-08-26T08:42:54.984Z,94333.94
2022-08-26T08:44:59.790Z,94330.66
2022-08-26T08:47:06.495Z,94337.28
2022-08-26T08:49:09.267Z,94334.56
2022-08-26T08:51:48.258Z,94331.47
2022-08-26T08:53:54.799Z,94326.91
2022-08-26T08:56:20.839Z,94332.06
2022-08-26T08:58:52.412Z,94324.56
2022-08-26T09:01:35.623Z,94334.88
2022-08-26T09:03:51.365Z,94329.56
2022-08-26T09:05:53.617Z,94322.31
2022-08-26T09:08:04.650Z,94316.16
2022-08-26T09:10:31.452Z,94316.81
2022-08-26T09:12:34.568Z,94321.19
2022-08-26T09:14:36.383Z,94315.03
2022-08-26T09:16:51.421Z,94309.16
2022-08-26T09:19:15.525Z,94307.31
2022-08-26T09:21:25.469Z,94306.47
2022-08-26T09:23:27.541Z,94302.69
2022-08-26T09:25:29.540Z,94296.47
2022-08-26T09:27:42.410Z,94299.44
2022-08-26T09:29:45.646Z,94288.41
2022-08-26T09:31:54.062Z,94287.53
2022-08-26T09:34:21.499Z,94294.06
2022-08-26T09:36:41.129Z,94292.78
2022-08-26T09:38:44.090Z,94290.34
2022-08-26T09:41:00.527Z,94293.84
2022-08-26T09:43:13.538Z,94295.72
2022-08-26T09:45:15.814Z,94299.53
2022-08-26T09:47:21.452Z,94299.50
2022-08-26T09:49:25.838Z,94296.84
2022-08-26T09:51:32.157Z,94294.66
2022-08-26T09:53:37.640Z,94297.59
2022-08-26T09:55:42.131Z,94298.16
2022-08-26T09:57:52.691Z,94297.34
2022-08-26T09:59:54.666Z,94296.31
2022-08-26T10:02:33.584Z,94295.22
2022-08-26T10:04:36.062Z,94287.13
2022-08-26T10:07:02.486Z,94292.50
2022-08-26T10:09:08.838Z,94283.13
2022-08-26T10:11:28.356Z,94282.28
2022-08-26T10:14:05.461Z,94278.69
2022-08-26T10:16:30.894Z,94281.00
2022-08-26T10:18:37.447Z,94271.78
2022-08-26T10:20:49.600Z,94276.38
2022-08-26T10:23:05.980Z,94281.38
2022-08-26T10:25:14.045Z,94275.03
2022-08-26T10:27:27.679Z,94271.91
2022-08-26T10:29:39.340Z,94275.25
2022-08-26T10:31:52.000Z,94266.63
2022-08-26T10:33:58.655Z,94274.88
2022-08-26T10:36:07.110Z,94276.44
2022-08-26T10:38:22.894Z,94268.03
2022-08-26T10:40:27.301Z,94272.72
2022-08-26T10:42:41.218Z,94273.09
2022-08-26T10:44:44.532Z,94263.66
2022-08-26T10:46:52.739Z,94268.03
2022-08-26T10:49:11.730Z,94273.56
2022-08-26T10:51:16.820Z,94272.28
2022-08-26T10:53:38.333Z,94273.19
2022-08-26T10:56:18.562Z,94263.75
2022-08-26T10:58:41.533Z,94263.47
2022-08-26T11:01:10.430Z,94263.16
2022-08-26T11:03:30.024Z,94263.19
2022-08-26T11:05:31.979Z,94254.69
2022-08-26T11:07:44.369Z,94251.50
2022-08-26T11:09:47.636Z,94253.81
2022-08-26T11:11:51.591Z,94257.34
2022-08-26T11:14:04.801Z,94258.13
2022-08-26T11:16:08.439Z,94262.22
2022-08-26T11:18:12.701Z,94260.59
2022-08-26T11:20:41.553Z,94251.47
2022-08-26T11:22:48.057Z,94258.53
2022-08-26T11:24:53.036Z,94248.84
2022-08-26T11:26:56.704Z,94246.09
2022-08-26T11:28:58.756Z,94248.03
2022-08-26T11:33:47.441Z,94250.72
2022-08-26T11:35:52.280Z,94250.28
2022-08-26T11:37:57.474Z,94257.84
2022-08-26T11:40:01.495Z,94248.06
2022-08-26T11:42:27.904Z,94240.31
2022-08-26T11:44:38.378Z,94240.94
2022-08-26T11:46:40.249Z,94240.41
2022-08-26T11:48:43.888Z,94239.44
2022-08-26T11:50:55.620Z,94242.66
2022-08-26T11:53:07.585Z,94243.03
2022-08-26T11:55:14.690Z,94238.59
2022-08-26T11:57:16.458Z,94233.09
2022-08-26T11:59:24.468Z,94235.94
2022-08-26T12:01:31.469Z,94230.75
2022-08-26T12:03:49.425Z,94227.16
2022-08-26T12:05:52.687Z,94230.56
2022-08-26T12:07:55.979Z,94233.50
2022-08-26T12:10:02.221Z,94218.88
2022-08-26T12:12:14.569Z,94223.59
2022-08-26T12:14:23.139Z,94216.13
2022-08-26T12:16:28.110Z,94209.56
2022-08-26T12:18:39.005Z,94214.19
2022-08-26T12:20:48.724Z,94214.34
2022-08-26T12:22:50.705Z,94205.25
2022-08-26T12:24:58.527Z,94206.97
2022-08-26T12:27:21.065Z,94200.25
2022-08-26T12:29:27.117Z,94204.66
2022-08-26T12:31:33.656Z,94193.69
2022-08-26T12:33:36.783Z,94199.22
2022-08-26T12:35:41.042Z,94196.84
2022-08-26T12:37:46.896Z,94201.44
2022-08-26T12:39:49.370Z,94205.19
2022-08-26T12:41:57.509Z,94203.63
2022-08-26T12:43:59.618Z,94204.06
2022-08-26T12:46:01.647Z,94202.72
2022-08-26T12:48:13.595Z,94191.44
2022-08-26T12:50:26.840Z,94195.59
2022-08-26T12:52:30.734Z,94193.59
2022-08-26T12:54:56.138Z,94189.84
2022-08-26T12:57:09.950Z,94197.97
2022-08-26T12:59:26.486Z,94195.28
2022-08-26T13:01:38.080Z,94189.09
2022-08-26T13:03:46.380Z,94191.25
2022-08-26T13:05:48.437Z,94196.47
2022-08-26T13:08:09.506Z,94191.06
2022-08-26T13:10:35.233Z,94189.78
2022-08-26T13:12:37.432Z,94180.03
2022-08-26T13:14:40.535Z,94183.53
2022-08-26T13:16:42.884Z,94184.63
2022-08-26T13:18:44.741Z,94188.75
2022-08-26T13:20:46.995Z,94182.34
2022-08-26T13:22:51.945Z,94186.53
2022-08-26T13:25:01.240Z,94184.06
2022-08-26T13:27:04.603Z,94182.06
2022-08-26T13:29:10.151Z,94174.38
2022-08-26T13:31:13.822Z,94168.59
2022-08-26T13:33:16.788Z,94168.38
2022-08-26T13:35:20.269Z,94172.97
2022-08-26T13:37:35.055Z,94167.53
2022-08-26T13:39:38.221Z,94166.50
2022-08-26T13:41:40.138Z,94166.34
2022-08-26T13:43:42.315Z,94172.06
2022-08-26T13:45:45.161Z,94170.00
2022-08-26T13:47:47.944Z,94175.03
2022-08-26T13:49:50.391Z,94170.75
2022-08-26T13:51:52.234Z,94172.50
2022-08-26T13:53:54.446Z,94174.28
2022-08-26T13:55:59.899Z,94167.88
2022-08-26T13:58:01.818Z,94164.00
2022-08-26T14:00:05.191Z,94169.91
2022-08-26T14:02:08.053Z,94165.31
2022-08-26T14:04:12.285Z,94162.19
2022-08-26T14:06:14.596Z,94162.50
2022-08-26T14:08:16.540Z,94165.19
2022-08-26T14:10:18.422Z,94162.06
2022-08-26T14:12:20.761Z,94172.66
2022-08-26T14:14:22.653Z,94168.69
2022-08-26T14:16:33.530Z,94162.75
2022-08-26T14:18:41.793Z,94164.28
2022-08-26T14:20:49.431Z,94164.03
2022-08-26T14:23:12.711Z,94165.78
2022-08-26T14:25:13.936Z,94161.94
2022-08-26T14:27:15.738Z,94167.38
2022-08-26T14:29:17.916Z,94161.44
2022-08-26T14:31:19.937Z,94159.28
2022-08-26T14:33:25.452Z,94160.31
2022-08-26T14:35:30.778Z,94164.84
2022-08-26T14:37:33.003Z,94159.66
2022-08-26T14:39:35.650Z,94161.38
2022-08-26T14:41:54.023Z,94164.81
2022-08-26T14:44:00.708Z,94157.84
2022-08-26T14:46:02.509Z,94167.22
2022-08-26T14:48:04.511Z,94173.22
2022-08-26T14:50:06.724Z,94170.81
2022-08-26T14:52:08.884Z,94172.44
2022-08-26T14:54:12.468Z,94162.56
2022-08-26T14:56:16.714Z,94160.56
2022-08-26T14:58:18.709Z,94170.31
2022-08-26T15:00:21.476Z,94169.38
2022-08-26T15:02:32.704Z,94161.28
2022-08-26T15:04:35.435Z,94169.19
2022-08-26T15:06:38.006Z,94160.44
2022-08-26T15:08:40.158Z,94165.28
2022-08-26T15:10:42.100Z,94167.41
2022-08-26T15:12:44.918Z,94161.28
2022-08-26T15:14:46.940Z,94171.63
2022-08-26T15:16:51.289Z,94169.78
2022-08-26T15:18:53.170Z,94166.03
2022-08-26T15:20:54.932Z,94168.34
2022-08-26T15:22:58.209Z,94169.00
2022-08-26T15:25:05.615Z,94168.28
2022-08-26T15:27:08.629Z,94168.16
2022-08-26T15:29:10.447Z,94170.97
2022-08-26T15:31:12.473Z,94166.56
2022-08-26T15:33:15.078Z,94164.34
2022-08-26T15:35:17.430Z,94172.94
2022-08-26T15:37:19.460Z,94166.63
2022-08-26T15:39:21.433Z,94175.22
2022-08-26T15:41:24.227Z,94169.81
2022-08-26T15:43:29.012Z,94170.34
2022-08-26T15:45:33.010Z,94162.56
2022-08-26T15:47:48.385Z,94159.72
2022-08-26T15:49:56.677Z,94151.53
2022-08-26T15:52:05.177Z,94163.34
2022-08-26T15:54:10.386Z,94162.09
2022-08-26T15:56:13.451Z,94162.84
2022-08-26T15:58:15.885Z,94158.00
2022-08-26T16:00:18.277Z,94154.22
2022-08-26T16:02:20.363Z,94158.94
2022-08-26T16:04:22.483Z,94157.91
2022-08-26T16:06:27.569Z,94163.81
2022-08-26T16:08:30.127Z,94160.97
2022-08-26T16:10:39.451Z,94157.03
2022-08-26T16:12:41.278Z,94151.88
2022-08-26T16:14:43.733Z,94158.69
2022-08-26T16:16:45.916Z,94164.38
2022-08-26T16:18:48.538Z,94157.75
2022-08-26T16:21:06.546Z,94164.22
2022-08-26T16:23:14.166Z,94167.13
2022-08-26T16:25:15.914Z,94157.69
2022-08-26T16:27:17.824Z,94163.81
2022-08-26T16:29:19.617Z,94157.69
2022-08-26T16:31:22.075Z,94159.44
2022-08-26T16:33:29.555Z,94161.81
2022-08-26T16:35:31.608Z,94162.00
2022-08-26T16:37:35.501Z,94159.53
2022-08-26T16:39:40.217Z,94153.56
2022-08-26T16:41:46.978Z,94157.13
2022-08-26T16:43:49.252Z,94155.53
2022-08-26T16:45:51.279Z,94167.09
2022-08-26T16:47:55.384Z,94165.75
2022-08-26T16:49:57.412Z,94161.16
2022-08-26T16:51:59.225Z,94165.22
2022-08-26T16:54:02.105Z,94166.06
2022-08-26T16:56:04.345Z,94166.91
2022-08-26T16:58:06.138Z,94170.72
2022-08-26T17:00:12.897Z,94164.84
2022-08-26T17:02:14.860Z,94164.84
2022-08-26T17:04:17.131Z,94162.47
2022-08-26T17:06:18.905Z,94168.69
2022-08-26T17:08:27.391Z,94171.44
2022-08-26T17:10:31.055Z,94171.19
2022-08-26T17:12:34.396Z,94174.44
2022-08-26T17:14:42.617Z,94176.31
2022-08-26T17:16:51.249Z,94183.31
2022-08-26T17:18:53.053Z,94180.41
2022-08-26T17:20:55.584Z,94180.94
2022-08-26T17:22:57.363Z,94176.91
2022-08-26T17:24:59.026Z,94180.16
2022-08-26T17:27:01.073Z,94183.13
2022-08-26T17:29:03.015Z,94184.22
2022-08-26T17:31:06.312Z,94183.97
2022-08-26T17:33:10.991Z,94184.81
2022-08-26T17:35:14.591Z,94190.97
2022-08-26T17:37:16.864Z,94184.53
2022-08-26T17:39:18.670Z,94191.53
2022-08-26T17:41:20.738Z,94197.97
2022-08-26T17:43:22.517Z,94192.63
2022-08-26T17:45:27.091Z,94195.03
2022-08-26T17:47:28.782Z,94193.16
2022-08-26T17:49:30.432Z,94193.13
2022-08-26T17:51:32.665Z,94205.50
2022-08-26T17:53:34.325Z,94202.00
2022-08-26T17:55:36.027Z,94207.09
2022-08-26T17:57:39.757Z,94205.22
2022-08-26T17:59:42.862Z,94210.59
2022-08-26T18:01:44.730Z,94206.84
2022-08-26T18:03:46.507Z,94205.75
2022-08-26T18:05:52.716Z,94204.66
2022-08-26T18:07:54.363Z,94208.13
2022-08-26T18:09:56.103Z,94214.00
2022-08-26T18:11:58.764Z,94212.94
2022-08-26T18:14:00.759Z,94212.38
2022-08-26T18:16:04.644Z,94218.56
2022-08-26T18:18:06.404Z,94215.59
2022-08-26T18:20:11.430Z,94217.72
2022-08-26T18:22:15.795Z,94222.53
2022-08-26T18:24:17.923Z,94223.09
2022-08-26T18:26:28.638Z,94220.91
2022-08-26T18:28:30.296Z,94224.69
2022-08-26T18:30:34.052Z,94228.13
2022-08-26T18:32:36.017Z,94225.97
2022-08-26T18:34:37.720Z,94225.97
2022-08-26T18:36:40.195Z,94228.66
2022-08-26T18:38:42.775Z,94223.00
2022-08-26T18:40:45.450Z,94226.22
2022-08-26T18:42:47.179Z,94226.72
2022-08-26T18:44:55.894Z,94230.97
2022-08-26T18:46:57.592Z,94238.19
2022-08-26T18:48:59.333Z,94236.81
2022-08-26T18:51:01.286Z,94240.56
2022-08-26T18:53:03.045Z,94237.09
2022-08-26T18:55:05.128Z,94243.25
2022-08-26T18:57:07.143Z,94237.59
2022-08-26T18:59:09.381Z,94237.59
2022-08-26T19:01:12.203Z,94244.81
2022-08-26T19:03:19.161Z,94242.66
2022-08-26T19:05:21.110Z,94238.38
2022-08-26T19:07:23.152Z,94245.06
2022-08-26T19:09:26.488Z,94242.88
2022-08-26T19:11:32.204Z,94243.69
2022-08-26T19:13:35.565Z,94235.09
2022-08-26T19:15:40.359Z,94238.84
2022-08-26T19:17:42.024Z,94245.81
2022-08-26T19:19:43.701Z,94249.03
2022-08-26T19:21:48.139Z,94248.47
2022-08-26T19:23:50.201Z,94243.34
2022-08-26T19:25:53.177Z,94244.03
2022-08-26T19:27:55.195Z,94244.06
2022-08-26T19:29:57.709Z,94243.47
2022-08-26T19:31:59.484Z,94244.72
2022-08-26T19:34:01.704Z,94250.81
2022-08-26T19:36:06.444Z,94244.56
2022-08-26T19:38:09.342Z,94243.94
2022-08-26T19:40:11.455Z,94235.56
2022-08-26T19:42:13.642Z,94246.41
2022-08-26T19:44:38.284Z,94246.63
2022-08-26T19:46:40.473Z,94247.69
2022-08-26T19:48:44.903Z,94250.09
2022-08-26T19:50:46.900Z,94253.22
2022-08-26T19:52:48.867Z,94252.38
2022-08-26T19:54:50.915Z,94252.69
2022-08-26T19:56:53.685Z,94252.31
2022-08-26T19:58:56.591Z,94249.38
2022-08-26T20:00:58.273Z,94250.00
2022-08-26T20:03:00.123Z,94246.97
2022-08-26T20:05:03.386Z,94251.38
2022-08-26T20:07:05.676Z,94249.31
2022-08-26T20:09:07.422Z,94252.38
2022-08-26T20:11:12.358Z,94258.06
2022-08-26T20:13:14.095Z,94249.28
2022-08-26T20:15:16.878Z,94257.63
2022-08-26T20:17:18.601Z,94256.56
2022-08-26T20:19:39.231Z,94250.63
2022-08-26T20:21:42.572Z,94257.53
2022-08-26T20:23:44.574Z,94259.69
2022-08-26T20:25:46.705Z,94252.78
2022-08-26T20:27:48.571Z,94254.97
2022-08-26T20:29:50.426Z,94254.97
2022-08-26T20:31:54.646Z,94256.56
2022-08-26T20:33:56.338Z,94251.44
2022-08-26T20:35:58.271Z,94252.28
2022-08-26T20:38:00.080Z,94254.13
2022-08-26T20:40:02.050Z,94246.38
2022-08-26T20:42:04.573Z,94250.09
2022-08-26T20:44:07.274Z,94251.66
2022-08-26T20:46:12.783Z,94261.75
2022-08-26T20:48:20.608Z,94264.19
2022-08-26T20:50:22.284Z,94265.06
2022-08-26T20:52:25.173Z,94263.25
2022-08-26T20:54:28.572Z,94259.13
2022-08-26T20:56:30.345Z,94260.09
2022-08-26T20:58:32.182Z,94264.25
2022-08-26T21:00:33.915Z,94262.81
2022-08-26T21:02:35.654Z,94258.06
2022-08-26T21:04:37.478Z,94260.50
2022-08-26T21:06:39.412Z,94266.19
2022-08-26T21:08:44.386Z,94266.03
2022-08-26T21:10:46.873Z,94267.81
2022-08-26T21:12:49.132Z,94258.09
2022-08-26T21:14:50.825Z,94262.66
2022-08-26T21:16:52.551Z,94256.25
2022-08-26T21:18:54.353Z,94264.72
2022-08-26T21:20:56.095Z,94264.41
2022-08-26T21:22:57.969Z,94268.69
2022-08-26T21:24:59.739Z,94277.88
2022-08-26T21:27:01.530Z,94276.78
2022-08-26T21:29:04.334Z,94283.16
2022-08-26T21:31:08.183Z,94276.81
2022-08-26T21:33:09.954Z,94265.81
2022-08-26T21:35:11.730Z,94275.44
2022-08-26T21:37:16.902Z,94267.44
2022-08-26T21:39:18.942Z,94276.91
2022-08-26T21:41:25.231Z,94274.44
2022-08-26T21:43:33.677Z,94276.22
2022-08-26T21:45:41.243Z,94275.84
2022-08-26T21:47:43.509Z,94273.59
2022-08-26T21:49:45.216Z,94269.47
2022-08-26T21:51:48.293Z,94276.06
2022-08-26T21:53:50.787Z,94283.91
2022-08-26T21:55:52.489Z,94292.25
2022-08-26T21:57:54.349Z,94287.53
2022-08-26T21:59:56.682Z,94285.22
2022-08-26T22:01:59.059Z,94291.34
2022-08-26T22:04:03.941Z,94278.81
2022-08-26T22:06:05.915Z,94284.38
2022-08-26T22:08:07.760Z,94280.50
2022-08-26T22:10:09.676Z,94282.19
2022-08-26T22:12:11.867Z,94286.34
2022-08-26T22:14:15.254Z,94278.84
2022-08-26T22:16:18.176Z,94281.00
2022-08-26T22:18:21.578Z,94289.13
2022-08-26T22:20:23.888Z,94280.13
2022-08-26T22:22:26.178Z,94283.78
2022-08-26T22:24:27.999Z,94285.88
2022-08-26T22:26:31.949Z,94286.69
2022-08-26T22:28:33.882Z,94290.16
2022-08-26T22:30:35.947Z,94285.97
2022-08-26T22:32:39.685Z,94277.72
2022-08-26T22:34:42.026Z,94284.94
2022-08-26T22:36:46.826Z,94279.31
2022-08-26T22:38:49.570Z,94279.69
2022-08-26T22:40:57.450Z,94282.13
2022-08-26T22:43:00.182Z,94286.97
2022-08-26T22:45:03.121Z,94287.78
2022-08-26T22:47:07.491Z,94290.44
2022-08-26T22:49:10.688Z,94289.88
2022-08-26T22:51:12.953Z,94296.03
2022-08-26T22:53:16.300Z,94289.63
2022-08-26T22:55:18.122Z,94290.94
2022-08-26T22:57:20.726Z,94300.22
2022-08-26T22:59:22.552Z,94290.81
2022-08-26T23:01:24.304Z,94289.75
2022-08-26T23:03:26.793Z,94290.00
2022-08-26T23:05:28.822Z,94289.56
2022-08-26T23:07:30.598Z,94286.53
2022-08-26T23:09:32.391Z,94283.53
2022-08-26T23:11:34.487Z,94281.69
2022-08-26T23:13:36.543Z,94284.47
2022-08-26T23:15:38.901Z,94281.81
2022-08-26T23:17:40.798Z,94285.59
2022-08-26T23:19:42.412Z,94279.81
2022-08-26T23:21:44.559Z,94286.91
2022-08-26T23:23:46.315Z,94286.34
2022-08-26T23:25:48.032Z,94286.81
2022-08-26T23:27:50.262Z,94290.56
2022-08-26T23:29:51.968Z,94284.31
2022-08-26T23:31:53.719Z,94281.53
2022-08-26T23:34:13.955Z,94278.53
2022-08-26T23:36:17.732Z,94290.13
2022-08-26T23:38:19.895Z,94287.94
2022-08-26T23:40:28.343Z,94285.31
2022-08-26T23:42:30.661Z,94294.34
2022-08-26T23:44:32.729Z,94293.56
2022-08-26T23:46:35.407Z,94291.91
2022-08-26T23:48:37.659Z,94294.81
2022-08-26T23:50:58.105Z,94297.25
2022-08-26T23:53:09.048Z,94293.06
2022-08-26T23:55:11.919Z,94285.56
2022-08-26T23:57:13.600Z,94296.44
2022-08-26T23:59:15.649Z,94298.03
